EW2998 Weather Reports


Display with metric or nautical units.
time (UTC)temp
F
wind
direction
speed
MPH
gust
MPH
rain 1hr
in
rain 24hr
in
rain mn
in
humidity
%
barometer
mb
20220627051002 72 121 4.0 8.0 0.00 0.09 0.00 91 1014.3
20220627050503 72 123 4.0 8.0 0.00 0.09 0.00 91 1014.4
20220627050002 72 119 4.0 8.0 0.00 0.09 0.00 91 1014.4
20220627045502 72 119 3.0 6.0 0.00 0.09 0.00 91 1014.6
20220627045003 72 121 3.0 7.0 0.00 0.09 0.00 91 1014.7
20220627044503 71 123 2.0 7.0 0.00 0.09 0.00 91 1014.7
20220627044002 71 121 3.0 7.0 0.00 0.09 0.00 91 1014.7
20220627043503 71 119 3.0 7.0 0.00 0.09 0.00 91 1014.8
20220627043003 71 124 3.0 5.0 0.00 0.09 0.00 91 1014.8
20220627042502 71 127 3.0 5.0 0.00 0.09 0.00 91 1014.7
20220627042003 71 126 3.0 6.0 0.00 0.09 0.00 91 1014.7
20220627041503 71 125 3.0 6.0 0.00 0.09 0.00 91 1014.8
20220627041002 71 126 3.0 7.0 0.00 0.09 0.00 90 1014.7
20220627040503 71 126 2.0 7.0 0.00 0.09 0.00 90 1014.7
20220627040003 71 128 2.0 6.0 0.00 0.09 0.00 90 1014.7
20220627035502 70 129 2.0 6.0 0.00 0.09 0.09 90 1014.7
20220627035003 70 134 1.0 5.0 0.00 0.09 0.09 90 1014.8
20220627034503 70 202 1.0 4.0 0.00 0.09 0.09 89 1014.8
20220627034002 70 191 1.0 4.0 0.00 0.09 0.09 89 1014.9
20220627033503 70 138 1.0 4.0 0.00 0.09 0.09 89 1014.8
20220627033003 70 127 2.0 4.0 0.00 0.09 0.09 89 1014.8
20220627032502 70 127 2.0 4.0 0.00 0.09 0.09 88 1014.7
20220627032003 70 128 2.0 4.0 0.00 0.09 0.09 88 1014.9
20220627031503 70 127 1.0 4.0 0.00 0.09 0.09 89 1014.9
20220627031002 70 124 1.0 2.0 0.00 0.09 0.09 89 1014.9
20220627030503 70 122 1.0 3.0 0.00 0.09 0.09 89 1014.9
20220627030002 70 122 2.0 4.0 0.00 0.09 0.09 89 1014.9
20220627025502 70 123 2.0 4.0 0.00 0.09 0.09 90 1014.9
20220627025003 70 124 2.0 6.0 0.00 0.09 0.09 89 1014.8
20220627024503 70 124 2.0 6.0 0.00 0.09 0.09 89 1014.8
20220627024004 70 123 2.0 4.0 0.00 0.09 0.09 89 1015.1
20220627023503 70 124 1.0 3.0 0.00 0.09 0.09 89 1015.1
20220627023005 70 123 1.0 3.0 0.01 0.09 0.09 89 1015.2
20220627022503 70 120 1.0 2.0 0.01 0.09 0.09 89 1015.3
20220627022003 70 123 1.0 4.0 0.01 0.09 0.09 89 1015.3
20220627021503 70 122 1.0 4.0 0.02 0.09 0.09 89 1015.3
20220627021004 70 124 1.0 3.0 0.02 0.09 0.09 88 1015.3
20220627020502 70 124 1.0 3.0 0.03 0.09 0.09 89 1015.3
20220627020004 70 113 1.0 3.0 0.04 0.09 0.09 89 1015.2
20220627015503 70 102 1.0 3.0 0.04 0.09 0.09 90 1015.2
20220627015003 70 104 2.0 4.0 0.04 0.09 0.09 90 1015.2
20220627014503 70 105 2.0 4.0 0.04 0.09 0.09 90 1015.2
20220627014003 70 105 1.0 4.0 0.04 0.09 0.09 91 1015.1
20220627013502 70 111 0.0 1.0 0.04 0.09 0.09 91 1015.1
20220627013003 71 108 0.0 1.0 0.03 0.08 0.08 90 1015.2
20220627012504 71 0 0.0 0.0 0.03 0.08 0.08 88 1015.1
20220627012002 71 184 0.0 2.0 0.04 0.08 0.08 87 1015.1
20220627011503 71 182 0.0 2.0 0.06 0.07 0.07 86 1015.2
20220627011002 71 134 0.0 1.0 0.07 0.07 0.07 86 1015.2
20220627010503 71 134 0.0 1.0 0.06 0.06 0.06 86 1015.1
20220627010002 72 0 0.0 0.0 0.05 0.05 0.05 85 1015.2
20220627005503 72 213 0.0 2.0 0.05 0.05 0.05 84 1015.2
20220627005002 72 207 0.0 2.0 0.05 0.05 0.05 83 1015.2
20220627004503 72 210 0.0 2.0 0.05 0.05 0.05 82 1015.1
20220627004004 72 183 1.0 5.0 0.05 0.05 0.05 82 1015.2
20220627003502 72 201 2.0 7.0 0.05 0.05 0.05 82 1015.1
20220627003003 72 233 3.0 7.0 0.05 0.05 0.05 81 1015.3
20220627002504 73 232 5.0 13.0 0.05 0.05 0.05 79 1015.2
20220627002002 75 221 6.0 13.0 0.04 0.04 0.04 74 1015.3
20220627001503 78 205 4.0 10.0 0.01 0.01 0.01 69 1015.1
20220627001003 78 152 4.0 10.0 0.00 0.00 0.00 66 1014.9
20220627000503 78 132 4.0 10.0 0.00 0.00 0.00 66 1014.7
20220627000003 78 138 3.0 9.0 0.00 0.00 0.00 66 1014.5
20220626235502 78 144 3.0 11.0 0.00 0.00 0.00 67 1014.7
20220626235003 78 133 4.0 11.0 0.00 0.00 0.00 67 1014.6
20220626234503 78 124 5.0 14.0 0.00 0.00 0.00 67 1014.6
20220626234002 78 124 5.0 14.0 0.00 0.00 0.00 67 1014.5
20220626233503 78 127 5.0 14.0 0.00 0.00 0.00 67 1014.5
20220626233002 78 128 6.0 14.0 0.00 0.00 0.00 67 1014.4
20220626232503 78 126 6.0 11.0 0.00 0.00 0.00 67 1014.4
20220626232003 78 125 5.0 11.0 0.00 0.00 0.00 66 1014.5
20220626231503 79 125 5.0 11.0 0.00 0.00 0.00 66 1014.5
20220626231002 79 125 6.0 12.0 0.00 0.00 0.00 66 1014.5
20220626230503 79 125 6.0 12.0 0.00 0.00 0.00 66 1014.5
20220626230003 79 125 6.0 14.0 0.00 0.00 0.00 66 1014.5
20220626225502 79 126 6.0 14.0 0.00 0.00 0.00 66 1014.4
20220626225003 79 124 6.0 13.0 0.00 0.00 0.00 66 1014.3
20220626224503 79 122 6.0 13.0 0.00 0.00 0.00 66 1014.5
20220626224003 79 122 7.0 16.0 0.00 0.00 0.00 66 1014.4
20220626223502 79 126 7.0 17.0 0.00 0.00 0.00 66 1014.5
20220626223004 79 128 6.0 17.0 0.00 0.00 0.00 66 1014.5
20220626222503 80 125 7.0 14.0 0.00 0.00 0.00 66 1014.5
20220626222003 80 126 7.0 14.0 0.00 0.00 0.00 65 1014.4
20220626221503 80 126 7.0 18.0 0.00 0.00 0.00 66 1014.6
20220626221003 80 126 8.0 18.0 0.00 0.00 0.00 65 1014.5
20220626220503 80 125 7.0 17.0 0.00 0.00 0.00 64 1014.6
20220626220002 80 124 7.0 13.0 0.00 0.00 0.00 65 1014.5
20220626215503 80 122 8.0 19.0 0.00 0.00 0.00 64 1014.5
20220626215003 80 125 9.0 19.0 0.00 0.00 0.00 64 1014.5
20220626214503 80 125 9.0 18.0 0.00 0.00 0.00 63 1014.6
20220626214003 81 123 9.0 18.0 0.00 0.00 0.00 62 1014.6
20220626213502 81 124 8.0 16.0 0.00 0.00 0.00 62 1014.6
20220626213002 81 121 9.0 19.0 0.00 0.00 0.00 62 1014.7
20220626212503 81 121 9.0 19.0 0.00 0.00 0.00 62 1014.8
20220626212003 81 124 10.0 19.0 0.00 0.00 0.00 62 1014.7
20220626211503 81 120 11.0 19.0 0.00 0.00 0.00 62 1014.8
20220626211003 81 118 9.0 18.0 0.00 0.00 0.00 61 1014.8
20220626210502 81 122 8.0 16.0 0.00 0.00 0.00 61 1014.9
20220626210002 82 123 8.0 15.0 0.00 0.00 0.00 61 1014.9
20220626205503 82 120 9.0 20.0 0.00 0.00 0.00 61 1014.9
20220626205003 82 117 10.0 20.0 0.00 0.00 0.00 60 1015.0
20220626204502 82 118 9.0 20.0 0.00 0.00 0.00 60 1014.9
20220626204003 82 123 9.0 22.0 0.00 0.00 0.00 60 1014.9
20220626203503 82 123 9.0 22.0 0.00 0.00 0.00 58 1015.0
20220626203003 83 122 9.0 18.0 0.00 0.00 0.00 59 1014.8
20220626202502 83 125 9.0 17.0 0.00 0.00 0.00 58 1014.9
20220626202003 83 126 10.0 22.0 0.00 0.00 0.00 58 1015.0
20220626201503 83 125 11.0 23.0 0.00 0.00 0.00 58 1015.0
20220626201003 83 123 11.0 23.0 0.00 0.00 0.00 57 1015.0
20220626200503 83 121 11.0 20.0 0.00 0.00 0.00 58 1015.0
20220626200003 83 122 10.0 20.0 0.00 0.00 0.00 57 1015.2
20220626195503 83 123 9.0 18.0 0.00 0.00 0.00 59 1015.2
20220626195003 84 122 9.0 17.0 0.00 0.00 0.00 58 1015.2
20220626194503 84 121 9.0 17.0 0.00 0.00 0.00 57 1015.3
20220626194003 84 122 10.0 23.0 0.00 0.00 0.00 57 1015.3
20220626193503 83 123 10.0 23.0 0.00 0.00 0.00 57 1015.4
20220626193003 83 126 10.0 21.0 0.00 0.00 0.00 57 1015.5
20220626192502 83 124 10.0 21.0 0.00 0.00 0.00 58 1015.5
20220626192002 83 119 11.0 22.0 0.00 0.00 0.00 57 1015.5
20220626191503 83 116 12.0 22.0 0.00 0.00 0.00 57 1015.5
20220626191003 83 112 12.0 22.0 0.00 0.00 0.00 57 1015.6
20220626190503 83 113 11.0 22.0 0.00 0.00 0.00 58 1015.6
20220626190003 83 115 10.0 19.0 0.00 0.00 0.00 59 1015.6
20220626185503 83 116 10.0 19.0 0.00 0.00 0.00 58 1015.6
20220626185002 83 124 9.0 19.0 0.00 0.00 0.00 59 1015.7
20220626184503 84 123 9.0 20.0 0.00 0.00 0.00 57 1015.8
20220626184002 83 120 10.0 20.0 0.00 0.00 0.00 59 1015.8
20220626183503 84 122 9.0 15.0 0.00 0.00 0.00 58 1016.0
20220626183003 84 125 8.0 19.0 0.00 0.00 0.00 58 1016.0
20220626182503 83 126 8.0 19.0 0.00 0.00 0.00 57 1016.0
20220626182002 84 127 8.0 18.0 0.00 0.00 0.00 56 1016.1
20220626181503 84 123 8.0 14.0 0.00 0.00 0.00 57 1016.2
20220626181003 84 118 9.0 20.0 0.00 0.00 0.00 58 1016.3
20220626180503 83 119 10.0 20.0 0.00 0.00 0.00 57 1016.4
20220626180003 83 121 10.0 20.0 0.00 0.00 0.00 57 1016.6
20220626175503 83 122 10.0 20.0 0.00 0.00 0.00 57 1016.7
20220626175002 83 117 11.0 19.0 0.00 0.00 0.00 57 1016.6
20220626174503 82 117 10.0 19.0 0.00 0.00 0.00 58 1016.8
20220626174003 83 120 9.0 16.0 0.00 0.00 0.00 58 1016.8
20220626173503 83 116 9.0 16.0 0.00 0.00 0.00 60 1016.9
20220626173002 83 120 8.0 19.0 0.00 0.00 0.00 60 1016.9
20220626172503 83 121 9.0 19.0 0.00 0.00 0.00 61 1016.9
20220626172003 82 117 10.0 17.0 0.00 0.00 0.00 60 1017.0
20220626171503 82 116 9.0 17.0 0.00 0.00 0.00 60 1017.0
20220626171003 83 123 7.0 17.0 0.00 0.00 0.00 62 1017.1
20220626170502 83 130 6.0 14.0 0.00 0.00 0.00 61 1017.1
20220626170004 82 125 7.0 15.0 0.00 0.00 0.00 62 1017.2
20220626165503 82 122 8.0 15.0 0.00 0.00 0.00 65 1017.3
20220626165002 82 120 7.0 14.0 0.00 0.00 0.00 66 1017.4
20220626164503 82 114 7.0 17.0 0.00 0.00 0.00 65 1017.5
20220626164003 82 112 8.0 17.0 0.00 0.00 0.00 67 1017.6
20220626163502 81 112 8.0 16.0 0.00 0.00 0.00 67 1017.6
20220626163003 81 111 8.0 16.0 0.00 0.00 0.00 65 1017.7
20220626162503 81 111 8.0 16.0 0.00 0.00 0.00 66 1017.7
20220626162002 81 113 8.0 15.0 0.00 0.00 0.00 66 1017.7
20220626161503 81 113 6.0 12.0 0.00 0.00 0.00 68 1017.7
20220626161003 81 111 5.0 13.0 0.00 0.00 0.00 69 1017.8
20220626160503 81 113 6.0 13.0 0.00 0.00 0.00 68 1017.8
20220626160003 80 114 8.0 17.0 0.00 0.00 0.00 67 1017.9
20220626155503 80 120 6.0 17.0 0.00 0.00 0.00 67 1017.9
20220626155002 81 126 5.0 11.0 0.00 0.00 0.00 69 1017.9
20220626154503 80 119 6.0 11.0 0.00 0.00 0.00 67 1018.0
20220626154003 80 116 6.0 12.0 0.00 0.00 0.00 69 1018.1
20220626153503 80 111 5.0 12.0 0.00 0.00 0.00 70 1018.0
20220626153003 80 113 4.0 10.0 0.00 0.00 0.00 70 1018.0
20220626152503 80 122 4.0 10.0 0.00 0.00 0.00 68 1017.9
20220626152002 79 127 4.0 10.0 0.00 0.00 0.00 69 1018.0
20220626151503 79 132 4.0 9.0 0.00 0.00 0.00 68 1018.1
20220626151003 79 127 4.0 9.0 0.00 0.00 0.00 69 1018.1
20220626150502 79 117 5.0 12.0 0.00 0.00 0.00 71 1018.1
20220626150003 78 118 6.0 12.0 0.00 0.00 0.00 71 1017.9
20220626145503 78 119 6.0 12.0 0.00 0.00 0.00 72 1018.0
20220626145003 78 118 6.0 10.0 0.00 0.00 0.00 71 1018.0
20220626144503 77 115 5.0 10.0 0.00 0.00 0.00 72 1018.0
20220626144003 78 117 5.0 9.0 0.00 0.00 0.00 72 1018.0
20220626143503 78 132 5.0 11.0 0.00 0.00 0.00 72 1017.9
20220626143002 78 135 5.0 11.0 0.00 0.00 0.00 70 1017.9
20220626142503 78 127 5.0 11.0 0.00 0.00 0.00 72 1018.1
20220626142003 78 128 5.0 11.0 0.00 0.00 0.00 72 1018.1
20220626141503 78 131 4.0 10.0 0.00 0.00 0.00 70 1018.1
20220626141003 77 125 4.0 13.0 0.00 0.00 0.00 75 1018.1
20220626140503 77 122 5.0 13.0 0.00 0.00 0.00 73 1018.1
20220626140002 77 121 5.0 11.0 0.00 0.00 0.00 73 1018.1
20220626135503 78 120 4.0 9.0 0.00 0.00 0.00 73 1018.1
20220626135003 78 118 4.0 10.0 0.00 0.00 0.00 74 1018.1
20220626134503 77 112 5.0 10.0 0.00 0.00 0.00 73 1018.1
20220626134003 77 115 5.0 11.0 0.00 0.00 0.00 75 1018.1
20220626133503 76 121 6.0 11.0 0.00 0.00 0.00 75 1018.1
20220626133003 76 123 5.0 9.0 0.00 0.00 0.00 75 1018.1
20220626132503 76 132 4.0 8.0 0.00 0.00 0.00 76 1018.2
20220626132003 75 150 3.0 9.0 0.00 0.00 0.00 79 1018.2
20220626131503 75 151 4.0 10.0 0.00 0.00 0.00 77 1018.4
20220626131002 75 141 5.0 11.0 0.00 0.00 0.00 76 1018.4
20220626130503 75 134 4.0 11.0 0.00 0.00 0.00 76 1018.4
20220626130003 75 128 4.0 10.0 0.00 0.00 0.00 77 1018.4
20220626125503 75 132 4.0 10.0 0.00 0.00 0.00 77 1018.4
20220626125003 75 146 4.0 11.0 0.00 0.00 0.00 76 1018.4
20220626124503 75 139 4.0 11.0 0.00 0.00 0.00 77 1018.5
20220626124003 75 140 4.0 11.0 0.00 0.00 0.00 76 1018.5
20220626123503 74 139 4.0 10.0 0.00 0.00 0.00 78 1018.6
20220626123003 74 136 4.0 11.0 0.00 0.00 0.00 78 1018.5
20220626122503 73 142 5.0 11.0 0.00 0.00 0.00 79 1018.6
20220626122003 73 147 4.0 10.0 0.00 0.00 0.00 80 1018.8
20220626121503 73 160 3.0 10.0 0.00 0.00 0.00 81 1018.9
20220626121003 73 147 3.0 10.0 0.00 0.00 0.00 81 1018.8
20220626120502 72 133 3.0 9.0 0.00 0.00 0.00 82 1018.7
20220626120003 72 131 4.0 10.0 0.00 0.00 0.00 83 1018.7
20220626115503 72 126 3.0 10.0 0.00 0.00 0.00 82 1018.7
20220626115002 72 122 4.0 10.0 0.00 0.00 0.00 84 1018.7
20220626114503 72 124 4.0 10.0 0.00 0.00 0.00 83 1018.8
20220626114003 71 124 4.0 9.0 0.00 0.00 0.00 84 1018.7
20220626113502 71 122 4.0 8.0 0.00 0.00 0.00 85 1018.9
20220626113003 71 120 4.0 8.0 0.00 0.00 0.00 85 1018.9
20220626112503 70 121 3.0 7.0 0.00 0.00 0.00 86 1018.8
20220626112003 70 125 3.0 7.0 0.00 0.00 0.00 86 1018.8
20220626111503 70 125 3.0 6.0 0.00 0.00 0.00 86 1018.8
20220626111003 70 122 3.0 6.0 0.00 0.00 0.00 87 1018.8
20220626110503 70 121 4.0 7.0 0.00 0.00 0.00 87 1018.7
20220626110003 69 123 4.0 7.0 0.00 0.00 0.00 88 1018.6
20220626105503 69 125 3.0 6.0 0.00 0.00 0.00 88 1018.9
20220626105003 69 124 3.0 6.0 0.00 0.00 0.00 89 1018.8
20220626104503 68 124 2.0 5.0 0.00 0.00 0.00 89 1018.9
20220626104003 68 126 3.0 6.0 0.00 0.00 0.00 90 1018.9
20220626103503 68 126 3.0 6.0 0.00 0.00 0.00 90 1018.8
20220626103003 68 126 3.0 6.0 0.00 0.00 0.00 90 1018.8
20220626102503 68 129 2.0 6.0 0.00 0.00 0.00 90 1018.7
20220626102003 68 130 2.0 5.0 0.00 0.00 0.00 90 1018.7
20220626101504 68 127 3.0 6.0 0.00 0.00 0.00 90 1018.6
20220626101003 68 124 3.0 6.0 0.00 0.00 0.00 91 1018.6
20220626100503 67 123 2.0 5.0 0.00 0.00 0.00 91 1018.7
20220626100002 67 124 2.0 4.0 0.00 0.00 0.00 92 1018.7
20220626095503 67 125 1.0 3.0 0.00 0.00 0.00 92 1018.7
20220626095003 67 125 1.0 2.0 0.00 0.00 0.00 92 1018.5
20220626094503 67 124 1.0 3.0 0.00 0.00 0.00 92 1018.6
20220626094003 67 124 1.0 3.0 0.00 0.00 0.00 93 1018.6
20220626093503 67 124 1.0 3.0 0.00 0.00 0.00 92 1018.6
20220626093003 67 124 2.0 3.0 0.00 0.00 0.00 92 1018.5
20220626092503 67 124 2.0 3.0 0.00 0.00 0.00 93 1018.5
20220626092003 67 124 2.0 3.0 0.00 0.00 0.00 92 1018.4
20220626091503 67 124 2.0 4.0 0.00 0.00 0.00 92 1018.4
20220626091003 67 123 2.0 4.0 0.00 0.00 0.00 92 1018.4
20220626090503 67 121 1.0 3.0 0.00 0.00 0.00 92 1018.4
20220626090003 67 121 2.0 3.0 0.00 0.00 0.00 92 1018.5
20220626085502 67 122 2.0 4.0 0.00 0.00 0.00 92 1018.4
20220626085003 67 124 3.0 4.0 0.00 0.00 0.00 92 1018.4
20220626084503 67 126 2.0 4.0 0.00 0.00 0.00 92 1018.5
20220626084003 67 135 1.0 4.0 0.00 0.00 0.00 92 1018.5
20220626083503 67 149 0.0 4.0 0.00 0.00 0.00 92 1018.6
20220626083003 67 126 0.0 2.0 0.00 0.00 0.00 92 1018.5
20220626082503 67 125 0.0 2.0 0.00 0.00 0.00 92 1018.4
20220626082003 67 124 0.0 2.0 0.00 0.00 0.00 91 1018.5
20220626081503 67 125 0.0 2.0 0.00 0.00 0.00 91 1018.4
20220626081003 67 123 1.0 2.0 0.00 0.00 0.00 91 1018.4
20220626080503 67 122 1.0 2.0 0.00 0.00 0.00 91 1018.4
20220626080003 67 125 1.0 2.0 0.00 0.00 0.00 91 1018.6
20220626075503 67 125 1.0 3.0 0.00 0.00 0.00 91 1018.5
20220626075004 67 124 2.0 4.0 0.00 0.00 0.00 91 1018.6
20220626074503 68 124 2.0 4.0 0.00 0.00 0.00 91 1018.6
20220626074003 68 126 1.0 4.0 0.00 0.00 0.00 91 1018.6
20220626073502 67 133 0.0 2.0 0.00 0.00 0.00 91 1018.7
20220626073003 67 129 0.0 2.0 0.00 0.00 0.00 91 1018.7
20220626072503 68 126 1.0 3.0 0.00 0.00 0.00 91 1018.7
20220626072003 68 126 1.0 3.0 0.00 0.00 0.00 91 1018.8
20220626071504 68 128 1.0 2.0 0.00 0.00 0.00 91 1018.8
20220626071003 68 127 1.0 2.0 0.00 0.00 0.00 91 1018.8
20220626070503 68 127 1.0 2.0 0.00 0.00 0.00 92 1018.7
20220626070003 68 128 1.0 2.0 0.00 0.00 0.00 91 1018.7
20220626065503 68 128 0.0 2.0 0.00 0.00 0.00 92 1018.7
20220626065003 68 124 0.0 1.0 0.00 0.00 0.00 91 1018.7
20220626064503 68 127 0.0 2.0 0.00 0.00 0.00 91 1018.6
20220626064004 68 140 0.0 2.0 0.00 0.00 0.00 92 1018.5
20220626063503 68 186 0.0 1.0 0.00 0.00 0.00 92 1018.7
20220626063003 68 0 0.0 0.0 0.00 0.00 0.00 92 1018.7
20220626062503 68 0 0.0 0.0 0.00 0.00 0.00 91 1018.6
20220626062003 68 0 0.0 0.0 0.00 0.00 0.00 91 1018.6
20220626061503 68 0 0.0 0.0 0.00 0.00 0.00 91 1018.7
20220626061003 68 0 0.0 0.0 0.00 0.00 0.00 90 1018.7
20220626060503 68 0 0.0 0.0 0.00 0.00 0.00 90 1018.6
20220626060003 68 201 0.0 1.0 0.00 0.00 0.00 90 1018.7
20220626055503 69 201 0.0 1.0 0.00 0.00 0.00 90 1018.7
20220626055004 69 198 0.0 2.0 0.00 0.00 0.00 90 1018.6
20220626054503 69 193 0.0 2.0 0.00 0.00 0.00 90 1018.7
20220626054003 69 122 0.0 2.0 0.00 0.00 0.00 90 1018.8
20220626053502 69 123 0.0 3.0 0.00 0.00 0.00 90 1018.6
20220626053004 68 125 0.0 3.0 0.00 0.00 0.00 90 1018.7
20220626052503 68 123 0.0 1.0 0.00 0.00 0.00 89 1018.7
20220626052003 69 123 0.0 2.0 0.00 0.00 0.00 89 1018.8
20220626051503 69 122 1.0 2.0 0.00 0.00 0.00 89 1018.9